sensor_id;sensor_type;location;lat;lon;timestamp;pressure;altitude;pressure_sealevel;temperature
9985;BMP180;16737;50.932;6.780;2022-11-20T00:00:41;99792.00;;;8.90
9985;BMP180;16737;50.932;6.780;2022-11-20T00:03:12;99788.00;;;9.00
9985;BMP180;16737;50.932;6.780;2022-11-20T00:05:40;99792.00;;;9.00
9985;BMP180;16737;50.932;6.780;2022-11-20T00:08:06;99797.00;;;9.00
9985;BMP180;16737;50.932;6.780;2022-11-20T00:10:36;99797.00;;;9.00
9985;BMP180;16737;50.932;6.780;2022-11-20T00:13:03;99798.00;;;9.00
9985;BMP180;16737;50.932;6.780;2022-11-20T00:15:30;99788.00;;;9.00
9985;BMP180;16737;50.932;6.780;2022-11-20T00:17:57;99798.00;;;9.00
9985;BMP180;16737;50.932;6.780;2022-11-20T00:20:26;99806.00;;;9.00
9985;BMP180;16737;50.932;6.780;2022-11-20T00:22:53;99804.00;;;9.00
9985;BMP180;16737;50.932;6.780;2022-11-20T00:25:20;99789.00;;;8.90
9985;BMP180;16737;50.932;6.780;2022-11-20T00:27:46;99787.00;;;8.90
9985;BMP180;16737;50.932;6.780;2022-11-20T00:30:14;99789.00;;;8.90
9985;BMP180;16737;50.932;6.780;2022-11-20T00:32:41;99799.00;;;8.90
9985;BMP180;16737;50.932;6.780;2022-11-20T00:35:08;99792.00;;;8.90
9985;BMP180;16737;50.932;6.780;2022-11-20T00:37:39;99783.00;;;8.90
9985;BMP180;16737;50.932;6.780;2022-11-20T00:40:08;99788.00;;;8.80
9985;BMP180;16737;50.932;6.780;2022-11-20T00:42:35;99783.00;;;8.80
9985;BMP180;16737;50.932;6.780;2022-11-20T00:45:02;99794.00;;;8.80
9985;BMP180;16737;50.932;6.780;2022-11-20T00:47:29;99788.00;;;8.80
9985;BMP180;16737;50.932;6.780;2022-11-20T00:49:56;99798.00;;;8.80
9985;BMP180;16737;50.932;6.780;2022-11-20T00:52:23;99797.00;;;8.90
9985;BMP180;16737;50.932;6.780;2022-11-20T00:54:51;99803.00;;;8.90
9985;BMP180;16737;50.932;6.780;2022-11-20T00:57:18;99798.00;;;8.90
9985;BMP180;16737;50.932;6.780;2022-11-20T00:59:45;99794.00;;;9.00
9985;BMP180;16737;50.932;6.780;2022-11-20T01:02:12;99802.00;;;9.00
9985;BMP180;16737;50.932;6.780;2022-11-20T01:04:41;99781.00;;;9.00
9985;BMP180;16737;50.932;6.780;2022-11-20T01:07:14;99788.00;;;9.00
9985;BMP180;16737;50.932;6.780;2022-11-20T01:09:44;99775.00;;;9.00
9985;BMP180;16737;50.932;6.780;2022-11-20T01:12:12;99788.00;;;9.00
9985;BMP180;16737;50.932;6.780;2022-11-20T01:14:39;99797.00;;;9.00
9985;BMP180;16737;50.932;6.780;2022-11-20T01:17:06;99783.00;;;8.90
9985;BMP180;16737;50.932;6.780;2022-11-20T01:19:33;99784.00;;;8.90
9985;BMP180;16737;50.932;6.780;2022-11-20T01:22:00;99786.00;;;8.90
9985;BMP180;16737;50.932;6.780;2022-11-20T01:24:27;99788.00;;;8.90
9985;BMP180;16737;50.932;6.780;2022-11-20T01:26:53;99784.00;;;8.90
9985;BMP180;16737;50.932;6.780;2022-11-20T01:29:24;99787.00;;;8.90
9985;BMP180;16737;50.932;6.780;2022-11-20T01:31:52;99788.00;;;8.90
9985;BMP180;16737;50.932;6.780;2022-11-20T01:34:21;99783.00;;;8.90
9985;BMP180;16737;50.932;6.780;2022-11-20T01:36:49;99784.00;;;8.90
9985;BMP180;16737;50.932;6.780;2022-11-20T01:39:19;99776.00;;;8.90
9985;BMP180;16737;50.932;6.780;2022-11-20T01:41:48;99767.00;;;8.80
9985;BMP180;16737;50.932;6.780;2022-11-20T01:44:55;99753.00;;;8.80
9985;BMP180;16737;50.932;6.780;2022-11-20T01:47:34;99751.00;;;8.70
9985;BMP180;16737;50.932;6.780;2022-11-20T01:50:08;99742.00;;;8.70
9985;BMP180;16737;50.932;6.780;2022-11-20T01:52:42;99745.00;;;8.70
9985;BMP180;16737;50.932;6.780;2022-11-20T01:55:21;99743.00;;;8.60
9985;BMP180;16737;50.932;6.780;2022-11-20T01:57:48;99747.00;;;8.60
9985;BMP180;16737;50.932;6.780;2022-11-20T02:00:21;99752.00;;;8.60
9985;BMP180;16737;50.932;6.780;2022-11-20T02:02:53;99753.00;;;8.50
9985;BMP180;16737;50.932;6.780;2022-11-20T02:05:28;99752.00;;;8.50
9985;BMP180;16737;50.932;6.780;2022-11-20T02:07:58;99758.00;;;8.60
9985;BMP180;16737;50.932;6.780;2022-11-20T02:10:28;99755.00;;;8.50
9985;BMP180;16737;50.932;6.780;2022-11-20T02:12:55;99749.00;;;8.50
9985;BMP180;16737;50.932;6.780;2022-11-20T02:15:41;99759.00;;;8.50
9985;BMP180;16737;50.932;6.780;2022-11-20T02:18:10;99753.00;;;8.50
9985;BMP180;16737;50.932;6.780;2022-11-20T02:20:39;99754.00;;;8.50
9985;BMP180;16737;50.932;6.780;2022-11-20T02:23:12;99739.00;;;8.50
9985;BMP180;16737;50.932;6.780;2022-11-20T02:25:46;99734.00;;;8.40
9985;BMP180;16737;50.932;6.780;2022-11-20T02:28:14;99744.00;;;8.40
9985;BMP180;16737;50.932;6.780;2022-11-20T02:30:41;99750.00;;;8.40
9985;BMP180;16737;50.932;6.780;2022-11-20T02:33:08;99734.00;;;8.40
9985;BMP180;16737;50.932;6.780;2022-11-20T02:35:45;99731.00;;;8.30
9985;BMP180;16737;50.932;6.780;2022-11-20T02:38:13;99735.00;;;8.30
9985;BMP180;16737;50.932;6.780;2022-11-20T02:40:41;99738.00;;;8.30
9985;BMP180;16737;50.932;6.780;2022-11-20T02:43:10;99733.00;;;8.30
9985;BMP180;16737;50.932;6.780;2022-11-20T02:45:37;99732.00;;;8.30
9985;BMP180;16737;50.932;6.780;2022-11-20T02:48:06;99716.00;;;8.30
9985;BMP180;16737;50.932;6.780;2022-11-20T02:50:38;99741.00;;;8.30
9985;BMP180;16737;50.932;6.780;2022-11-20T02:53:05;99753.00;;;8.30
9985;BMP180;16737;50.932;6.780;2022-11-20T02:55:41;99748.00;;;8.30
9985;BMP180;16737;50.932;6.780;2022-11-20T02:58:10;99747.00;;;8.30
9985;BMP180;16737;50.932;6.780;2022-11-20T03:00:37;99738.00;;;8.40
9985;BMP180;16737;50.932;6.780;2022-11-20T03:03:04;99727.00;;;8.30
9985;BMP180;16737;50.932;6.780;2022-11-20T03:06:02;99741.00;;;8.30
9985;BMP180;16737;50.932;6.780;2022-11-20T03:08:29;99736.00;;;8.30
9985;BMP180;16737;50.932;6.780;2022-11-20T03:10:56;99730.00;;;8.30
9985;BMP180;16737;50.932;6.780;2022-11-20T03:13:25;99730.00;;;8.30
9985;BMP180;16737;50.932;6.780;2022-11-20T03:15:54;99719.00;;;8.30
9985;BMP180;16737;50.932;6.780;2022-11-20T03:18:21;99724.00;;;8.30
9985;BMP180;16737;50.932;6.780;2022-11-20T03:20:48;99729.00;;;8.30
9985;BMP180;16737;50.932;6.780;2022-11-20T03:23:15;99729.00;;;8.40
9985;BMP180;16737;50.932;6.780;2022-11-20T03:25:42;99725.00;;;8.40
9985;BMP180;16737;50.932;6.780;2022-11-20T03:28:12;99720.00;;;8.40
9985;BMP180;16737;50.932;6.780;2022-11-20T03:30:43;99718.00;;;8.40
9985;BMP180;16737;50.932;6.780;2022-11-20T03:33:10;99722.00;;;8.50
9985;BMP180;16737;50.932;6.780;2022-11-20T03:35:37;99716.00;;;8.50
9985;BMP180;16737;50.932;6.780;2022-11-20T03:38:04;99718.00;;;8.50
9985;BMP180;16737;50.932;6.780;2022-11-20T03:40:31;99711.00;;;8.50
9985;BMP180;16737;50.932;6.780;2022-11-20T03:42:58;99720.00;;;8.60
9985;BMP180;16737;50.932;6.780;2022-11-20T03:45:25;99710.00;;;8.60
9985;BMP180;16737;50.932;6.780;2022-11-20T03:47:53;99699.00;;;8.60
9985;BMP180;16737;50.932;6.780;2022-11-20T03:50:20;99708.00;;;8.60
9985;BMP180;16737;50.932;6.780;2022-11-20T03:52:47;99711.00;;;8.60
9985;BMP180;16737;50.932;6.780;2022-11-20T03:55:14;99692.00;;;8.70
9985;BMP180;16737;50.932;6.780;2022-11-20T03:57:41;99711.00;;;8.70
9985;BMP180;16737;50.932;6.780;2022-11-20T04:00:10;99691.00;;;8.60
9985;BMP180;16737;50.932;6.780;2022-11-20T04:02:37;99702.00;;;8.60
9985;BMP180;16737;50.932;6.780;2022-11-20T04:05:06;99695.00;;;8.60
9985;BMP180;16737;50.932;6.780;2022-11-20T04:07:34;99699.00;;;8.60
9985;BMP180;16737;50.932;6.780;2022-11-20T04:10:02;99676.00;;;8.60
9985;BMP180;16737;50.932;6.780;2022-11-20T04:12:32;99689.00;;;8.60
9985;BMP180;16737;50.932;6.780;2022-11-20T04:15:00;99680.00;;;8.60
9985;BMP180;16737;50.932;6.780;2022-11-20T04:17:27;99682.00;;;8.60
9985;BMP180;16737;50.932;6.780;2022-11-20T04:19:57;99692.00;;;8.50
9985;BMP180;16737;50.932;6.780;2022-11-20T04:22:25;99692.00;;;8.50
9985;BMP180;16737;50.932;6.780;2022-11-20T04:24:52;99692.00;;;8.50
9985;BMP180;16737;50.932;6.780;2022-11-20T04:27:19;99702.00;;;8.60
9985;BMP180;16737;50.932;6.780;2022-11-20T04:29:46;99703.00;;;8.60
9985;BMP180;16737;50.932;6.780;2022-11-20T04:32:13;99697.00;;;8.50
9985;BMP180;16737;50.932;6.780;2022-11-20T04:34:40;99696.00;;;8.60
9985;BMP180;16737;50.932;6.780;2022-11-20T04:37:07;99702.00;;;8.60
9985;BMP180;16737;50.932;6.780;2022-11-20T04:39:35;99705.00;;;8.60
9985;BMP180;16737;50.932;6.780;2022-11-20T04:42:03;99717.00;;;8.60
9985;BMP180;16737;50.932;6.780;2022-11-20T04:44:47;99706.00;;;8.60
9985;BMP180;16737;50.932;6.780;2022-11-20T04:47:14;99706.00;;;8.60
9985;BMP180;16737;50.932;6.780;2022-11-20T04:49:41;99719.00;;;8.70
9985;BMP180;16737;50.932;6.780;2022-11-20T04:52:08;99714.00;;;8.70
9985;BMP180;16737;50.932;6.780;2022-11-20T04:54:36;99715.00;;;8.70
9985;BMP180;16737;50.932;6.780;2022-11-20T04:57:03;99707.00;;;8.70
9985;BMP180;16737;50.932;6.780;2022-11-20T04:59:30;99714.00;;;8.70
9985;BMP180;16737;50.932;6.780;2022-11-20T05:01:57;99718.00;;;8.70
9985;BMP180;16737;50.932;6.780;2022-11-20T05:04:24;99710.00;;;8.70
9985;BMP180;16737;50.932;6.780;2022-11-20T05:06:51;99711.00;;;8.80
9985;BMP180;16737;50.932;6.780;2022-11-20T05:09:18;99709.00;;;8.80
9985;BMP180;16737;50.932;6.780;2022-11-20T05:11:46;99706.00;;;8.80
9985;BMP180;16737;50.932;6.780;2022-11-20T05:14:14;99709.00;;;8.80
9985;BMP180;16737;50.932;6.780;2022-11-20T05:16:40;99719.00;;;8.80
9985;BMP180;16737;50.932;6.780;2022-11-20T05:19:08;99717.00;;;8.80
9985;BMP180;16737;50.932;6.780;2022-11-20T05:21:35;99723.00;;;8.80
9985;BMP180;16737;50.932;6.780;2022-11-20T05:24:02;99719.00;;;8.80
9985;BMP180;16737;50.932;6.780;2022-11-20T05:26:30;99717.00;;;8.80
9985;BMP180;16737;50.932;6.780;2022-11-20T05:28:58;99716.00;;;8.80
9985;BMP180;16737;50.932;6.780;2022-11-20T05:31:26;99713.00;;;8.80
9985;BMP180;16737;50.932;6.780;2022-11-20T05:33:54;99704.00;;;8.80
9985;BMP180;16737;50.932;6.780;2022-11-20T05:36:21;99716.00;;;8.80
9985;BMP180;16737;50.932;6.780;2022-11-20T05:38:48;99714.00;;;8.80
9985;BMP180;16737;50.932;6.780;2022-11-20T05:41:17;99716.00;;;8.80
9985;BMP180;16737;50.932;6.780;2022-11-20T05:43:47;99711.00;;;8.80
9985;BMP180;16737;50.932;6.780;2022-11-20T05:46:19;99713.00;;;8.90
9985;BMP180;16737;50.932;6.780;2022-11-20T05:48:47;99716.00;;;8.90
9985;BMP180;16737;50.932;6.780;2022-11-20T05:51:17;99705.00;;;8.90
9985;BMP180;16737;50.932;6.780;2022-11-20T05:53:44;99706.00;;;8.90
9985;BMP180;16737;50.932;6.780;2022-11-20T05:56:14;99710.00;;;8.90
9985;BMP180;16737;50.932;6.780;2022-11-20T05:58:41;99720.00;;;8.90
9985;BMP180;16737;50.932;6.780;2022-11-20T06:01:13;99710.00;;;8.90
9985;BMP180;16737;50.932;6.780;2022-11-20T06:03:42;99715.00;;;9.00
9985;BMP180;16737;50.932;6.780;2022-11-20T06:06:12;99702.00;;;9.00
9985;BMP180;16737;50.932;6.780;2022-11-20T06:08:39;99702.00;;;9.00
9985;BMP180;16737;50.932;6.780;2022-11-20T06:11:08;99709.00;;;9.00
9985;BMP180;16737;50.932;6.780;2022-11-20T06:13:36;99703.00;;;9.00
9985;BMP180;16737;50.932;6.780;2022-11-20T06:16:04;99701.00;;;9.00
9985;BMP180;16737;50.932;6.780;2022-11-20T06:18:32;99704.00;;;9.00
9985;BMP180;16737;50.932;6.780;2022-11-20T06:21:03;99705.00;;;9.00
9985;BMP180;16737;50.932;6.780;2022-11-20T06:23:32;99693.00;;;9.00
9985;BMP180;16737;50.932;6.780;2022-11-20T06:26:02;99695.00;;;9.00
9985;BMP180;16737;50.932;6.780;2022-11-20T06:28:30;99702.00;;;9.00
9985;BMP180;16737;50.932;6.780;2022-11-20T06:30:57;99707.00;;;8.90
9985;BMP180;16737;50.932;6.780;2022-11-20T06:33:24;99705.00;;;8.90
9985;BMP180;16737;50.932;6.780;2022-11-20T06:35:52;99702.00;;;9.00
9985;BMP180;16737;50.932;6.780;2022-11-20T06:38:20;99707.00;;;9.00
9985;BMP180;16737;50.932;6.780;2022-11-20T06:40:47;99711.00;;;9.00
9985;BMP180;16737;50.932;6.780;2022-11-20T06:43:14;99719.00;;;9.00
9985;BMP180;16737;50.932;6.780;2022-11-20T06:45:41;99716.00;;;9.00
9985;BMP180;16737;50.932;6.780;2022-11-20T06:48:09;99718.00;;;9.00
9985;BMP180;16737;50.932;6.780;2022-11-20T06:50:37;99724.00;;;9.00
9985;BMP180;16737;50.932;6.780;2022-11-20T06:53:05;99724.00;;;9.10
9985;BMP180;16737;50.932;6.780;2022-11-20T06:55:33;99723.00;;;9.10
9985;BMP180;16737;50.932;6.780;2022-11-20T06:58:00;99731.00;;;9.10
9985;BMP180;16737;50.932;6.780;2022-11-20T07:00:27;99732.00;;;9.10
9985;BMP180;16737;50.932;6.780;2022-11-20T07:02:54;99719.00;;;9.10
9985;BMP180;16737;50.932;6.780;2022-11-20T07:05:21;99725.00;;;9.10
9985;BMP180;16737;50.932;6.780;2022-11-20T07:07:48;99725.00;;;9.10
9985;BMP180;16737;50.932;6.780;2022-11-20T07:10:15;99741.00;;;9.20
9985;BMP180;16737;50.932;6.780;2022-11-20T07:12:49;99739.00;;;9.10
9985;BMP180;16737;50.932;6.780;2022-11-20T07:15:16;99744.00;;;9.20
9985;BMP180;16737;50.932;6.780;2022-11-20T07:17:43;99735.00;;;9.20
9985;BMP180;16737;50.932;6.780;2022-11-20T07:20:11;99747.00;;;9.20
9985;BMP180;16737;50.932;6.780;2022-11-20T07:22:38;99744.00;;;9.20
9985;BMP180;16737;50.932;6.780;2022-11-20T07:25:06;99747.00;;;9.20
9985;BMP180;16737;50.932;6.780;2022-11-20T07:27:34;99756.00;;;9.20
9985;BMP180;16737;50.932;6.780;2022-11-20T07:30:05;99757.00;;;9.20
9985;BMP180;16737;50.932;6.780;2022-11-20T07:32:32;99750.00;;;9.20
9985;BMP180;16737;50.932;6.780;2022-11-20T07:34:59;99752.00;;;9.30
9985;BMP180;16737;50.932;6.780;2022-11-20T07:37:26;99763.00;;;9.30
9985;BMP180;16737;50.932;6.780;2022-11-20T07:39:53;99752.00;;;9.30
9985;BMP180;16737;50.932;6.780;2022-11-20T07:42:20;99754.00;;;9.30
9985;BMP180;16737;50.932;6.780;2022-11-20T07:44:47;99747.00;;;9.30
9985;BMP180;16737;50.932;6.780;2022-11-20T07:47:15;99744.00;;;9.30
9985;BMP180;16737;50.932;6.780;2022-11-20T07:49:42;99745.00;;;9.30
9985;BMP180;16737;50.932;6.780;2022-11-20T07:52:09;99732.00;;;9.30
9985;BMP180;16737;50.932;6.780;2022-11-20T07:54:36;99732.00;;;9.30
9985;BMP180;16737;50.932;6.780;2022-11-20T07:57:03;99748.00;;;9.20
9985;BMP180;16737;50.932;6.780;2022-11-20T07:59:30;99735.00;;;9.20
9985;BMP180;16737;50.932;6.780;2022-11-20T08:01:57;99748.00;;;9.20
9985;BMP180;16737;50.932;6.780;2022-11-20T08:04:26;99726.00;;;9.20
9985;BMP180;16737;50.932;6.780;2022-11-20T08:06:53;99734.00;;;9.20
9985;BMP180;16737;50.932;6.780;2022-11-20T08:09:19;99734.00;;;9.20
9985;BMP180;16737;50.932;6.780;2022-11-20T08:11:46;99730.00;;;9.20
9985;BMP180;16737;50.932;6.780;2022-11-20T08:14:31;99729.00;;;9.20
9985;BMP180;16737;50.932;6.780;2022-11-20T08:16:58;99730.00;;;9.20
9985;BMP180;16737;50.932;6.780;2022-11-20T08:19:26;99739.00;;;9.20
9985;BMP180;16737;50.932;6.780;2022-11-20T08:21:54;99730.00;;;9.20
9985;BMP180;16737;50.932;6.780;2022-11-20T08:24:21;99733.00;;;9.20
9985;BMP180;16737;50.932;6.780;2022-11-20T08:26:49;99741.00;;;9.20
9985;BMP180;16737;50.932;6.780;2022-11-20T08:29:15;99740.00;;;9.20
9985;BMP180;16737;50.932;6.780;2022-11-20T08:31:42;99733.00;;;9.20
9985;BMP180;16737;50.932;6.780;2022-11-20T08:34:09;99734.00;;;9.30
9985;BMP180;16737;50.932;6.780;2022-11-20T08:36:38;99747.00;;;9.30
9985;BMP180;16737;50.932;6.780;2022-11-20T08:39:05;99752.00;;;9.30
9985;BMP180;16737;50.932;6.780;2022-11-20T08:41:32;99746.00;;;9.30
9985;BMP180;16737;50.932;6.780;2022-11-20T08:44:02;99737.00;;;9.30
9985;BMP180;16737;50.932;6.780;2022-11-20T08:46:33;99739.00;;;9.30
9985;BMP180;16737;50.932;6.780;2022-11-20T08:49:02;99748.00;;;9.30
9985;BMP180;16737;50.932;6.780;2022-11-20T08:51:28;99741.00;;;9.40
9985;BMP180;16737;50.932;6.780;2022-11-20T08:53:57;99729.00;;;9.40
9985;BMP180;16737;50.932;6.780;2022-11-20T08:56:24;99731.00;;;9.40
9985;BMP180;16737;50.932;6.780;2022-11-20T08:58:52;99736.00;;;9.40
9985;BMP180;16737;50.932;6.780;2022-11-20T09:01:20;99732.00;;;9.50
9985;BMP180;16737;50.932;6.780;2022-11-20T09:03:47;99729.00;;;9.50
9985;BMP180;16737;50.932;6.780;2022-11-20T09:06:15;99746.00;;;9.50
9985;BMP180;16737;50.932;6.780;2022-11-20T09:08:42;99730.00;;;9.50
9985;BMP180;16737;50.932;6.780;2022-11-20T09:11:10;99734.00;;;9.50
9985;BMP180;16737;50.932;6.780;2022-11-20T09:13:38;99739.00;;;9.50
9985;BMP180;16737;50.932;6.780;2022-11-20T09:16:08;99728.00;;;9.60
9985;BMP180;16737;50.932;6.780;2022-11-20T09:18:36;99711.00;;;9.60
9985;BMP180;16737;50.932;6.780;2022-11-20T09:21:09;99726.00;;;9.60
9985;BMP180;16737;50.932;6.780;2022-11-20T09:23:38;99722.00;;;9.60
9985;BMP180;16737;50.932;6.780;2022-11-20T09:26:08;99718.00;;;9.60
9985;BMP180;16737;50.932;6.780;2022-11-20T09:28:37;99722.00;;;9.60
9985;BMP180;16737;50.932;6.780;2022-11-20T09:31:06;99716.00;;;9.60
9985;BMP180;16737;50.932;6.780;2022-11-20T09:33:33;99720.00;;;9.70
9985;BMP180;16737;50.932;6.780;2022-11-20T09:36:00;99706.00;;;9.70
9985;BMP180;16737;50.932;6.780;2022-11-20T09:38:29;99718.00;;;9.70
9985;BMP180;16737;50.932;6.780;2022-11-20T09:41:02;99710.00;;;9.70
9985;BMP180;16737;50.932;6.780;2022-11-20T09:43:46;99706.00;;;9.80
9985;BMP180;16737;50.932;6.780;2022-11-20T09:46:27;99723.00;;;9.80
9985;BMP180;16737;50.932;6.780;2022-11-20T09:49:13;99726.00;;;9.90
9985;BMP180;16737;50.932;6.780;2022-11-20T09:51:53;99716.00;;;9.90
9985;BMP180;16737;50.932;6.780;2022-11-20T09:54:31;99724.00;;;9.90
9985;BMP180;16737;50.932;6.780;2022-11-20T09:57:03;99726.00;;;9.90
9985;BMP180;16737;50.932;6.780;2022-11-20T09:59:40;99723.00;;;9.90
9985;BMP180;16737;50.932;6.780;2022-11-20T10:02:19;99703.00;;;9.90
9985;BMP180;16737;50.932;6.780;2022-11-20T10:04:58;99717.00;;;9.90
9985;BMP180;16737;50.932;6.780;2022-11-20T10:07:36;99719.00;;;9.80
9985;BMP180;16737;50.932;6.780;2022-11-20T10:10:05;99728.00;;;9.90
9985;BMP180;16737;50.932;6.780;2022-11-20T10:12:50;99727.00;;;9.80
9985;BMP180;16737;50.932;6.780;2022-11-20T10:15:33;99720.00;;;9.80
9985;BMP180;16737;50.932;6.780;2022-11-20T10:18:23;99719.00;;;9.90
9985;BMP180;16737;50.932;6.780;2022-11-20T10:21:05;99702.00;;;9.90
9985;BMP180;16737;50.932;6.780;2022-11-20T10:26:54;99671.00;;;9.90
9985;BMP180;16737;50.932;6.780;2022-11-20T10:29:29;99673.00;;;9.90
9985;BMP180;16737;50.932;6.780;2022-11-20T10:32:04;99668.00;;;9.90
9985;BMP180;16737;50.932;6.780;2022-11-20T10:34:46;99662.00;;;9.90
9985;BMP180;16737;50.932;6.780;2022-11-20T10:37:22;99670.00;;;10.00
9985;BMP180;16737;50.932;6.780;2022-11-20T10:39:58;99661.00;;;10.00
9985;BMP180;16737;50.932;6.780;2022-11-20T10:42:32;99673.00;;;10.10
9985;BMP180;16737;50.932;6.780;2022-11-20T10:45:15;99663.00;;;10.10
9985;BMP180;16737;50.932;6.780;2022-11-20T10:47:44;99658.00;;;10.10
9985;BMP180;16737;50.932;6.780;2022-11-20T10:50:19;99649.00;;;10.10
9985;BMP180;16737;50.932;6.780;2022-11-20T10:53:03;99650.00;;;10.10
9985;BMP180;16737;50.932;6.780;2022-11-20T10:55:40;99647.00;;;10.20
9985;BMP180;16737;50.932;6.780;2022-11-20T10:58:14;99648.00;;;10.20
9985;BMP180;16737;50.932;6.780;2022-11-20T11:00:43;99642.00;;;10.20
9985;BMP180;16737;50.932;6.780;2022-11-20T11:03:24;99628.00;;;10.10
9985;BMP180;16737;50.932;6.780;2022-11-20T11:06:00;99631.00;;;10.10
9985;BMP180;16737;50.932;6.780;2022-11-20T11:08:37;99637.00;;;10.00
9985;BMP180;16737;50.932;6.780;2022-11-20T11:11:20;99618.00;;;10.10
9985;BMP180;16737;50.932;6.780;2022-11-20T11:13:47;99628.00;;;10.10
9985;BMP180;16737;50.932;6.780;2022-11-20T11:16:23;99620.00;;;10.10
9985;BMP180;16737;50.932;6.780;2022-11-20T11:19:04;99612.00;;;10.10
9985;BMP180;16737;50.932;6.780;2022-11-20T11:21:31;99613.00;;;10.20
9985;BMP180;16737;50.932;6.780;2022-11-20T11:24:02;99604.00;;;10.20
9985;BMP180;16737;50.932;6.780;2022-11-20T11:26:30;99602.00;;;10.20
9985;BMP180;16737;50.932;6.780;2022-11-20T11:28:59;99596.00;;;10.20
9985;BMP180;16737;50.932;6.780;2022-11-20T11:31:28;99597.00;;;10.20
9985;BMP180;16737;50.932;6.780;2022-11-20T11:34:06;99593.00;;;10.20
9985;BMP180;16737;50.932;6.780;2022-11-20T11:36:34;99588.00;;;10.20
9985;BMP180;16737;50.932;6.780;2022-11-20T11:39:05;99588.00;;;10.20
9985;BMP180;16737;50.932;6.780;2022-11-20T11:41:34;99582.00;;;10.20
9985;BMP180;16737;50.932;6.780;2022-11-20T11:44:17;99583.00;;;10.20
9985;BMP180;16737;50.932;6.780;2022-11-20T11:47:06;99562.00;;;10.20
9985;BMP180;16737;50.932;6.780;2022-11-20T11:49:37;99577.00;;;10.10
9985;BMP180;16737;50.932;6.780;2022-11-20T11:52:12;99577.00;;;10.10
9985;BMP180;16737;50.932;6.780;2022-11-20T11:54:47;99562.00;;;10.10
9985;BMP180;16737;50.932;6.780;2022-11-20T11:57:23;99556.00;;;10.10
9985;BMP180;16737;50.932;6.780;2022-11-20T12:00:05;99547.00;;;10.00
9985;BMP180;16737;50.932;6.780;2022-11-20T12:02:49;99545.00;;;10.00
9985;BMP180;16737;50.932;6.780;2022-11-20T12:05:24;99531.00;;;10.00
9985;BMP180;16737;50.932;6.780;2022-11-20T12:07:57;99531.00;;;10.00
9985;BMP180;16737;50.932;6.780;2022-11-20T12:10:41;99526.00;;;9.90
9985;BMP180;16737;50.932;6.780;2022-11-20T12:13:43;99527.00;;;9.90
9985;BMP180;16737;50.932;6.780;2022-11-20T12:16:14;99529.00;;;9.90
9985;BMP180;16737;50.932;6.780;2022-11-20T12:18:42;99522.00;;;9.90
9985;BMP180;16737;50.932;6.780;2022-11-20T12:21:20;99531.00;;;9.90
9985;BMP180;16737;50.932;6.780;2022-11-20T12:24:35;99518.00;;;9.90
9985;BMP180;16737;50.932;6.780;2022-11-20T12:27:37;99506.00;;;9.90
9985;BMP180;16737;50.932;6.780;2022-11-20T12:30:09;99513.00;;;9.90
9985;BMP180;16737;50.932;6.780;2022-11-20T12:33:12;99500.00;;;9.80
9985;BMP180;16737;50.932;6.780;2022-11-20T12:36:01;99498.00;;;9.80
9985;BMP180;16737;50.932;6.780;2022-11-20T12:39:02;99498.00;;;9.80
9985;BMP180;16737;50.932;6.780;2022-11-20T12:41:57;99500.00;;;9.80
9985;BMP180;16737;50.932;6.780;2022-11-20T12:45:18;99485.00;;;9.80
9985;BMP180;16737;50.932;6.780;2022-11-20T12:48:37;99488.00;;;9.80
9985;BMP180;16737;50.932;6.780;2022-11-20T12:57:29;99466.00;;;9.80
9985;BMP180;16737;50.932;6.780;2022-11-20T13:00:11;99468.00;;;9.90
9985;BMP180;16737;50.932;6.780;2022-11-20T13:03:07;99457.00;;;9.90
9985;BMP180;16737;50.932;6.780;2022-11-20T13:05:50;99455.00;;;9.90
9985;BMP180;16737;50.932;6.780;2022-11-20T13:08:23;99451.00;;;9.90
9985;BMP180;16737;50.932;6.780;2022-11-20T13:11:01;99438.00;;;9.90
9985;BMP180;16737;50.932;6.780;2022-11-20T13:13:42;99440.00;;;9.90
9985;BMP180;16737;50.932;6.780;2022-11-20T13:16:20;99439.00;;;9.90
9985;BMP180;16737;50.932;6.780;2022-11-20T13:18:49;99431.00;;;10.00
9985;BMP180;16737;50.932;6.780;2022-11-20T13:21:19;99442.00;;;10.00
9985;BMP180;16737;50.932;6.780;2022-11-20T13:23:47;99429.00;;;10.10
9985;BMP180;16737;50.932;6.780;2022-11-20T13:26:19;99421.00;;;10.10
9985;BMP180;16737;50.932;6.780;2022-11-20T13:29:00;99428.00;;;10.10
9985;BMP180;16737;50.932;6.780;2022-11-20T13:31:33;99414.00;;;10.10
9985;BMP180;16737;50.932;6.780;2022-11-20T13:34:05;99415.00;;;10.20
9985;BMP180;16737;50.932;6.780;2022-11-20T13:36:33;99406.00;;;10.20
9985;BMP180;16737;50.932;6.780;2022-11-20T13:39:02;99404.00;;;10.20
9985;BMP180;16737;50.932;6.780;2022-11-20T13:41:35;99399.00;;;10.20
9985;BMP180;16737;50.932;6.780;2022-11-20T13:44:14;99390.00;;;10.20
9985;BMP180;16737;50.932;6.780;2022-11-20T13:46:43;99392.00;;;10.20
9985;BMP180;16737;50.932;6.780;2022-11-20T13:49:20;99395.00;;;10.20
9985;BMP180;16737;50.932;6.780;2022-11-20T13:51:51;99380.00;;;10.20
9985;BMP180;16737;50.932;6.780;2022-11-20T13:55:02;99372.00;;;10.20
9985;BMP180;16737;50.932;6.780;2022-11-20T13:58:04;99361.00;;;10.20
9985;BMP180;16737;50.932;6.780;2022-11-20T14:00:33;99361.00;;;10.20
9985;BMP180;16737;50.932;6.780;2022-11-20T14:03:09;99369.00;;;10.20
9985;BMP180;16737;50.932;6.780;2022-11-20T14:05:51;99363.00;;;10.20
9985;BMP180;16737;50.932;6.780;2022-11-20T14:08:27;99354.00;;;10.20
9985;BMP180;16737;50.932;6.780;2022-11-20T14:11:06;99361.00;;;10.20
9985;BMP180;16737;50.932;6.780;2022-11-20T14:13:56;99353.00;;;10.20
9985;BMP180;16737;50.932;6.780;2022-11-20T14:16:27;99338.00;;;10.30
9985;BMP180;16737;50.932;6.780;2022-11-20T14:18:55;99337.00;;;10.20
9985;BMP180;16737;50.932;6.780;2022-11-20T14:21:25;99331.00;;;10.30
9985;BMP180;16737;50.932;6.780;2022-11-20T14:24:04;99326.00;;;10.30
9985;BMP180;16737;50.932;6.780;2022-11-20T14:26:32;99329.00;;;10.30
9985;BMP180;16737;50.932;6.780;2022-11-20T14:29:00;99336.00;;;10.30
9985;BMP180;16737;50.932;6.780;2022-11-20T14:31:28;99310.00;;;10.40
9985;BMP180;16737;50.932;6.780;2022-11-20T14:33:56;99316.00;;;10.40
9985;BMP180;16737;50.932;6.780;2022-11-20T14:36:25;99298.00;;;10.30
9985;BMP180;16737;50.932;6.780;2022-11-20T14:38:52;99320.00;;;10.40
9985;BMP180;16737;50.932;6.780;2022-11-20T14:41:23;99298.00;;;10.40
9985;BMP180;16737;50.932;6.780;2022-11-20T14:43:54;99280.00;;;10.40
9985;BMP180;16737;50.932;6.780;2022-11-20T14:46:24;99289.00;;;10.40
9985;BMP180;16737;50.932;6.780;2022-11-20T14:48:55;99290.00;;;10.40
9985;BMP180;16737;50.932;6.780;2022-11-20T14:51:29;99288.00;;;10.50
9985;BMP180;16737;50.932;6.780;2022-11-20T14:54:09;99285.00;;;10.50
9985;BMP180;16737;50.932;6.780;2022-11-20T14:56:36;99286.00;;;10.50
9985;BMP180;16737;50.932;6.780;2022-11-20T14:59:04;99287.00;;;10.50
9985;BMP180;16737;50.932;6.780;2022-11-20T15:01:33;99279.00;;;10.60
9985;BMP180;16737;50.932;6.780;2022-11-20T15:04:06;99289.00;;;10.60
9985;BMP180;16737;50.932;6.780;2022-11-20T15:06:33;99296.00;;;10.60